sensor_id;sensor_type;location;lat;lon;timestamp;temperature;humidity
29093;DHT22;16167;48.768;14.984;2022-10-16T00:01:08;11.90;99.90
29093;DHT22;16167;48.768;14.984;2022-10-16T00:03:38;11.90;99.90
29093;DHT22;16167;48.768;14.984;2022-10-16T00:06:08;11.90;99.90
29093;DHT22;16167;48.768;14.984;2022-10-16T00:08:36;11.90;99.90
29093;DHT22;16167;48.768;14.984;2022-10-16T00:11:06;11.80;99.90
29093;DHT22;16167;48.768;14.984;2022-10-16T00:13:35;11.80;99.90
29093;DHT22;16167;48.768;14.984;2022-10-16T00:16:05;11.90;99.90
29093;DHT22;16167;48.768;14.984;2022-10-16T00:18:35;11.80;99.90
29093;DHT22;16167;48.768;14.984;2022-10-16T00:21:06;11.80;99.90
29093;DHT22;16167;48.768;14.984;2022-10-16T00:23:35;11.80;99.90
29093;DHT22;16167;48.768;14.984;2022-10-16T00:26:05;11.80;99.90
29093;DHT22;16167;48.768;14.984;2022-10-16T00:28:34;11.90;99.90
29093;DHT22;16167;48.768;14.984;2022-10-16T00:31:04;11.90;99.90
29093;DHT22;16167;48.768;14.984;2022-10-16T00:33:32;11.90;99.90
29093;DHT22;16167;48.768;14.984;2022-10-16T00:36:03;11.90;99.90
29093;DHT22;16167;48.768;14.984;2022-10-16T00:38:32;11.90;99.90
29093;DHT22;16167;48.768;14.984;2022-10-16T00:41:00;11.90;99.90
29093;DHT22;16167;48.768;14.984;2022-10-16T00:43:41;11.90;99.90
29093;DHT22;16167;48.768;14.984;2022-10-16T00:46:15;11.90;99.90
29093;DHT22;16167;48.768;14.984;2022-10-16T00:48:49;11.90;99.90
29093;DHT22;16167;48.768;14.984;2022-10-16T00:51:23;11.90;99.90
29093;DHT22;16167;48.768;14.984;2022-10-16T00:53:53;11.90;99.90
29093;DHT22;16167;48.768;14.984;2022-10-16T00:56:22;11.90;99.90
29093;DHT22;16167;48.768;14.984;2022-10-16T00:58:50;11.90;99.90
29093;DHT22;16167;48.768;14.984;2022-10-16T01:01:18;11.80;99.90
29093;DHT22;16167;48.768;14.984;2022-10-16T01:03:46;11.90;99.90
29093;DHT22;16167;48.768;14.984;2022-10-16T01:06:23;11.80;99.90
29093;DHT22;16167;48.768;14.984;2022-10-16T01:09:10;11.80;99.90
29093;DHT22;16167;48.768;14.984;2022-10-16T01:11:45;11.80;99.90
29093;DHT22;16167;48.768;14.984;2022-10-16T01:14:21;11.80;99.90
29093;DHT22;16167;48.768;14.984;2022-10-16T01:16:54;11.70;99.90
29093;DHT22;16167;48.768;14.984;2022-10-16T01:19:42;11.80;99.90
29093;DHT22;16167;48.768;14.984;2022-10-16T01:22:14;11.80;99.90
29093;DHT22;16167;48.768;14.984;2022-10-16T01:24:45;11.80;99.90
29093;DHT22;16167;48.768;14.984;2022-10-16T01:27:22;11.80;99.90
29093;DHT22;16167;48.768;14.984;2022-10-16T01:29:54;11.80;99.90
29093;DHT22;16167;48.768;14.984;2022-10-16T01:32:33;11.80;99.90
29093;DHT22;16167;48.768;14.984;2022-10-16T01:35:08;11.80;99.90
29093;DHT22;16167;48.768;14.984;2022-10-16T01:37:40;11.80;99.90
29093;DHT22;16167;48.768;14.984;2022-10-16T01:40:13;11.70;99.90
29093;DHT22;16167;48.768;14.984;2022-10-16T01:42:47;11.80;99.90
29093;DHT22;16167;48.768;14.984;2022-10-16T01:45:18;11.80;99.90
29093;DHT22;16167;48.768;14.984;2022-10-16T01:47:48;11.80;99.90
29093;DHT22;16167;48.768;14.984;2022-10-16T01:50:18;11.80;99.90
29093;DHT22;16167;48.768;14.984;2022-10-16T01:52:49;11.80;99.90
29093;DHT22;16167;48.768;14.984;2022-10-16T01:55:24;11.80;99.90
29093;DHT22;16167;48.768;14.984;2022-10-16T01:57:58;11.80;99.90
29093;DHT22;16167;48.768;14.984;2022-10-16T02:00:28;11.90;99.90
29093;DHT22;16167;48.768;14.984;2022-10-16T02:02:58;11.90;99.90
29093;DHT22;16167;48.768;14.984;2022-10-16T02:05:32;11.90;99.90
29093;DHT22;16167;48.768;14.984;2022-10-16T02:08:02;11.90;99.90
29093;DHT22;16167;48.768;14.984;2022-10-16T02:10:32;11.80;99.90
29093;DHT22;16167;48.768;14.984;2022-10-16T02:13:06;11.80;99.90
29093;DHT22;16167;48.768;14.984;2022-10-16T02:15:36;11.70;99.90
29093;DHT22;16167;48.768;14.984;2022-10-16T02:18:05;11.70;99.90
29093;DHT22;16167;48.768;14.984;2022-10-16T02:20:38;11.70;99.90
29093;DHT22;16167;48.768;14.984;2022-10-16T02:23:12;11.70;99.90
29093;DHT22;16167;48.768;14.984;2022-10-16T02:25:44;11.70;99.90
29093;DHT22;16167;48.768;14.984;2022-10-16T02:28:17;11.60;99.90
29093;DHT22;16167;48.768;14.984;2022-10-16T02:30:50;11.60;99.90
29093;DHT22;16167;48.768;14.984;2022-10-16T02:33:20;11.60;99.90
29093;DHT22;16167;48.768;14.984;2022-10-16T02:35:50;11.50;99.90
29093;DHT22;16167;48.768;14.984;2022-10-16T02:38:20;11.50;99.90
29093;DHT22;16167;48.768;14.984;2022-10-16T02:40:49;11.50;99.90
29093;DHT22;16167;48.768;14.984;2022-10-16T02:43:18;11.40;99.90
29093;DHT22;16167;48.768;14.984;2022-10-16T02:45:47;11.40;99.90
29093;DHT22;16167;48.768;14.984;2022-10-16T02:48:15;11.40;99.90
29093;DHT22;16167;48.768;14.984;2022-10-16T02:50:43;11.40;99.90
29093;DHT22;16167;48.768;14.984;2022-10-16T02:53:11;11.40;99.90
29093;DHT22;16167;48.768;14.984;2022-10-16T02:55:39;11.30;99.90
29093;DHT22;16167;48.768;14.984;2022-10-16T02:58:07;11.30;99.90
29093;DHT22;16167;48.768;14.984;2022-10-16T03:00:36;11.30;99.90
29093;DHT22;16167;48.768;14.984;2022-10-16T03:03:05;11.30;99.90
29093;DHT22;16167;48.768;14.984;2022-10-16T03:05:33;11.20;99.90
29093;DHT22;16167;48.768;14.984;2022-10-16T03:08:01;11.30;99.90
29093;DHT22;16167;48.768;14.984;2022-10-16T03:10:29;11.30;99.90
29093;DHT22;16167;48.768;14.984;2022-10-16T03:12:57;11.30;99.90
29093;DHT22;16167;48.768;14.984;2022-10-16T03:15:25;11.30;99.90
29093;DHT22;16167;48.768;14.984;2022-10-16T03:17:57;11.30;99.90
29093;DHT22;16167;48.768;14.984;2022-10-16T03:20:26;11.30;99.90
29093;DHT22;16167;48.768;14.984;2022-10-16T03:22:54;11.30;99.90
29093;DHT22;16167;48.768;14.984;2022-10-16T03:25:22;11.40;99.90
29093;DHT22;16167;48.768;14.984;2022-10-16T03:27:50;11.40;99.90
29093;DHT22;16167;48.768;14.984;2022-10-16T03:30:18;11.40;99.90
29093;DHT22;16167;48.768;14.984;2022-10-16T03:32:47;11.40;99.90
29093;DHT22;16167;48.768;14.984;2022-10-16T03:35:22;11.40;99.90
29093;DHT22;16167;48.768;14.984;2022-10-16T03:37:50;11.40;99.90
29093;DHT22;16167;48.768;14.984;2022-10-16T03:40:19;11.40;99.90
29093;DHT22;16167;48.768;14.984;2022-10-16T03:42:47;11.40;99.90
29093;DHT22;16167;48.768;14.984;2022-10-16T03:45:15;11.50;99.90
29093;DHT22;16167;48.768;14.984;2022-10-16T03:47:44;11.40;99.90
29093;DHT22;16167;48.768;14.984;2022-10-16T03:50:12;11.40;99.90
29093;DHT22;16167;48.768;14.984;2022-10-16T03:52:41;11.40;99.90
29093;DHT22;16167;48.768;14.984;2022-10-16T03:55:09;11.40;99.90
29093;DHT22;16167;48.768;14.984;2022-10-16T03:57:37;11.50;99.90
29093;DHT22;16167;48.768;14.984;2022-10-16T04:00:06;11.50;99.90
29093;DHT22;16167;48.768;14.984;2022-10-16T04:02:34;11.50;99.90
29093;DHT22;16167;48.768;14.984;2022-10-16T04:05:03;11.60;99.90
29093;DHT22;16167;48.768;14.984;2022-10-16T04:07:31;11.50;99.90
29093;DHT22;16167;48.768;14.984;2022-10-16T04:10:01;11.50;99.90
29093;DHT22;16167;48.768;14.984;2022-10-16T04:12:29;11.50;99.90
29093;DHT22;16167;48.768;14.984;2022-10-16T04:14:57;11.50;99.90
29093;DHT22;16167;48.768;14.984;2022-10-16T04:17:25;11.50;99.90
29093;DHT22;16167;48.768;14.984;2022-10-16T04:19:54;11.50;99.90
29093;DHT22;16167;48.768;14.984;2022-10-16T04:22:22;11.50;99.90
29093;DHT22;16167;48.768;14.984;2022-10-16T04:24:50;11.40;99.90
29093;DHT22;16167;48.768;14.984;2022-10-16T04:27:20;11.40;99.90
29093;DHT22;16167;48.768;14.984;2022-10-16T04:29:48;11.40;99.90
29093;DHT22;16167;48.768;14.984;2022-10-16T04:32:16;11.40;99.90
29093;DHT22;16167;48.768;14.984;2022-10-16T04:34:44;11.40;99.90
29093;DHT22;16167;48.768;14.984;2022-10-16T04:37:12;11.40;99.90
29093;DHT22;16167;48.768;14.984;2022-10-16T04:39:40;11.40;99.90
29093;DHT22;16167;48.768;14.984;2022-10-16T04:42:09;11.40;99.90
29093;DHT22;16167;48.768;14.984;2022-10-16T04:44:38;11.40;99.90
29093;DHT22;16167;48.768;14.984;2022-10-16T04:47:06;11.30;99.90
29093;DHT22;16167;48.768;14.984;2022-10-16T04:49:34;11.30;99.90
29093;DHT22;16167;48.768;14.984;2022-10-16T04:52:02;11.30;99.90
29093;DHT22;16167;48.768;14.984;2022-10-16T04:54:31;11.30;99.90
29093;DHT22;16167;48.768;14.984;2022-10-16T04:56:59;11.30;99.90
29093;DHT22;16167;48.768;14.984;2022-10-16T04:59:27;11.30;99.90
29093;DHT22;16167;48.768;14.984;2022-10-16T05:01:56;11.30;99.90
29093;DHT22;16167;48.768;14.984;2022-10-16T05:04:24;11.30;99.90
29093;DHT22;16167;48.768;14.984;2022-10-16T05:06:52;11.30;99.90
29093;DHT22;16167;48.768;14.984;2022-10-16T05:09:21;11.30;99.90
29093;DHT22;16167;48.768;14.984;2022-10-16T05:11:49;11.30;99.90
29093;DHT22;16167;48.768;14.984;2022-10-16T05:14:17;11.30;99.90
29093;DHT22;16167;48.768;14.984;2022-10-16T05:16:45;11.30;99.90
29093;DHT22;16167;48.768;14.984;2022-10-16T05:19:16;11.30;99.90
29093;DHT22;16167;48.768;14.984;2022-10-16T05:21:59;11.30;99.90
29093;DHT22;16167;48.768;14.984;2022-10-16T05:24:27;11.40;99.90
29093;DHT22;16167;48.768;14.984;2022-10-16T05:26:56;11.40;99.90
29093;DHT22;16167;48.768;14.984;2022-10-16T05:29:24;11.40;99.90
29093;DHT22;16167;48.768;14.984;2022-10-16T05:31:53;11.40;99.90
29093;DHT22;16167;48.768;14.984;2022-10-16T05:34:22;11.40;99.90
29093;DHT22;16167;48.768;14.984;2022-10-16T05:36:50;11.40;99.90
29093;DHT22;16167;48.768;14.984;2022-10-16T05:39:19;11.40;99.90
29093;DHT22;16167;48.768;14.984;2022-10-16T05:41:49;11.40;99.90
29093;DHT22;16167;48.768;14.984;2022-10-16T05:44:18;11.40;99.90
29093;DHT22;16167;48.768;14.984;2022-10-16T05:46:47;11.40;99.90
29093;DHT22;16167;48.768;14.984;2022-10-16T05:49:15;11.40;99.90
29093;DHT22;16167;48.768;14.984;2022-10-16T05:51:45;11.40;99.90
29093;DHT22;16167;48.768;14.984;2022-10-16T05:54:13;11.50;99.90
29093;DHT22;16167;48.768;14.984;2022-10-16T05:56:41;11.50;99.90
29093;DHT22;16167;48.768;14.984;2022-10-16T05:59:10;11.50;99.90
29093;DHT22;16167;48.768;14.984;2022-10-16T06:01:38;11.50;99.90
29093;DHT22;16167;48.768;14.984;2022-10-16T06:04:06;11.60;99.90
29093;DHT22;16167;48.768;14.984;2022-10-16T06:06:34;11.60;99.90
29093;DHT22;16167;48.768;14.984;2022-10-16T06:09:04;11.60;99.90
29093;DHT22;16167;48.768;14.984;2022-10-16T06:11:33;11.60;99.90
29093;DHT22;16167;48.768;14.984;2022-10-16T06:14:02;11.60;99.90
29093;DHT22;16167;48.768;14.984;2022-10-16T06:16:34;11.70;99.90
29093;DHT22;16167;48.768;14.984;2022-10-16T06:19:03;11.70;99.90
29093;DHT22;16167;48.768;14.984;2022-10-16T06:21:33;11.70;99.90
29093;DHT22;16167;48.768;14.984;2022-10-16T06:24:01;11.70;99.90
29093;DHT22;16167;48.768;14.984;2022-10-16T06:26:30;11.80;99.90
29093;DHT22;16167;48.768;14.984;2022-10-16T06:28:59;11.80;99.90
29093;DHT22;16167;48.768;14.984;2022-10-16T06:31:28;11.80;99.90
29093;DHT22;16167;48.768;14.984;2022-10-16T06:33:58;11.80;99.90
29093;DHT22;16167;48.768;14.984;2022-10-16T06:36:27;11.90;99.90
29093;DHT22;16167;48.768;14.984;2022-10-16T06:38:55;11.90;99.90
29093;DHT22;16167;48.768;14.984;2022-10-16T06:41:24;11.90;99.90
29093;DHT22;16167;48.768;14.984;2022-10-16T06:43:53;12.00;99.90
29093;DHT22;16167;48.768;14.984;2022-10-16T06:46:22;12.00;99.90
29093;DHT22;16167;48.768;14.984;2022-10-16T06:48:51;12.10;99.90
29093;DHT22;16167;48.768;14.984;2022-10-16T06:51:20;12.20;99.90
29093;DHT22;16167;48.768;14.984;2022-10-16T06:53:50;12.20;99.90
29093;DHT22;16167;48.768;14.984;2022-10-16T06:56:35;12.30;99.90
29093;DHT22;16167;48.768;14.984;2022-10-16T06:59:05;12.50;99.90
29093;DHT22;16167;48.768;14.984;2022-10-16T07:01:33;12.60;99.90
29093;DHT22;16167;48.768;14.984;2022-10-16T07:04:02;12.70;99.90
29093;DHT22;16167;48.768;14.984;2022-10-16T07:06:32;12.80;99.90
29093;DHT22;16167;48.768;14.984;2022-10-16T07:09:03;12.80;99.90
29093;DHT22;16167;48.768;14.984;2022-10-16T07:11:32;12.90;99.90
29093;DHT22;16167;48.768;14.984;2022-10-16T07:14:00;13.00;99.90
29093;DHT22;16167;48.768;14.984;2022-10-16T07:16:32;13.10;99.90
29093;DHT22;16167;48.768;14.984;2022-10-16T07:19:03;13.20;99.90
29093;DHT22;16167;48.768;14.984;2022-10-16T07:21:33;13.20;99.90
29093;DHT22;16167;48.768;14.984;2022-10-16T07:24:04;13.30;99.90
29093;DHT22;16167;48.768;14.984;2022-10-16T07:26:35;13.40;99.90
29093;DHT22;16167;48.768;14.984;2022-10-16T07:29:03;13.50;99.90
29093;DHT22;16167;48.768;14.984;2022-10-16T07:31:33;13.60;99.90
29093;DHT22;16167;48.768;14.984;2022-10-16T07:34:01;13.70;99.10
29093;DHT22;16167;48.768;14.984;2022-10-16T07:36:29;13.80;99.10
29093;DHT22;16167;48.768;14.984;2022-10-16T07:38:57;13.90;98.70
29093;DHT22;16167;48.768;14.984;2022-10-16T07:41:26;14.10;99.10
29093;DHT22;16167;48.768;14.984;2022-10-16T07:43:55;14.30;97.40
29093;DHT22;16167;48.768;14.984;2022-10-16T07:46:27;14.40;96.20
29093;DHT22;16167;48.768;14.984;2022-10-16T07:48:56;14.70;94.80
29093;DHT22;16167;48.768;14.984;2022-10-16T07:51:25;14.90;91.60
29093;DHT22;16167;48.768;14.984;2022-10-16T07:53:53;14.90;82.60
29093;DHT22;16167;48.768;14.984;2022-10-16T07:56:21;14.90;87.80
29093;DHT22;16167;48.768;14.984;2022-10-16T07:58:50;15.00;91.00
29093;DHT22;16167;48.768;14.984;2022-10-16T08:01:19;15.30;89.70
29093;DHT22;16167;48.768;14.984;2022-10-16T08:03:49;15.60;80.80
29093;DHT22;16167;48.768;14.984;2022-10-16T08:06:20;16.00;69.90
29093;DHT22;16167;48.768;14.984;2022-10-16T08:08:54;16.20;61.00
29093;DHT22;16167;48.768;14.984;2022-10-16T08:11:22;16.40;54.90
29093;DHT22;16167;48.768;14.984;2022-10-16T08:13:51;16.60;50.10
29093;DHT22;16167;48.768;14.984;2022-10-16T08:16:19;16.80;45.80
29093;DHT22;16167;48.768;14.984;2022-10-16T08:18:47;17.00;46.90
29093;DHT22;16167;48.768;14.984;2022-10-16T08:21:21;17.10;42.20
29093;DHT22;16167;48.768;14.984;2022-10-16T08:23:51;17.20;32.30
29093;DHT22;16167;48.768;14.984;2022-10-16T08:26:25;17.20;28.30
29093;DHT22;16167;48.768;14.984;2022-10-16T08:28:53;17.30;35.10
29093;DHT22;16167;48.768;14.984;2022-10-16T08:31:22;17.40;34.60
29093;DHT22;16167;48.768;14.984;2022-10-16T08:33:50;17.50;30.00
29093;DHT22;16167;48.768;14.984;2022-10-16T08:36:20;17.60;22.80
29093;DHT22;16167;48.768;14.984;2022-10-16T08:38:49;17.70;22.80
29093;DHT22;16167;48.768;14.984;2022-10-16T08:41:50;17.80;17.70
29093;DHT22;16167;48.768;14.984;2022-10-16T08:47:17;19.10;22.50
29093;DHT22;16167;48.768;14.984;2022-10-16T08:49:56;19.60;1.00
29093;DHT22;16167;48.768;14.984;2022-10-16T08:52:30;19.90;1.00
29093;DHT22;16167;48.768;14.984;2022-10-16T08:55:00;20.00;1.00
29093;DHT22;16167;48.768;14.984;2022-10-16T08:57:29;20.10;1.00
29093;DHT22;16167;48.768;14.984;2022-10-16T09:00:08;20.00;1.00
29093;DHT22;16167;48.768;14.984;2022-10-16T09:02:40;19.90;1.00
29093;DHT22;16167;48.768;14.984;2022-10-16T09:05:36;20.00;1.00
29093;DHT22;16167;48.768;14.984;2022-10-16T09:08:12;20.20;1.00
29093;DHT22;16167;48.768;14.984;2022-10-16T09:10:48;20.30;1.00
29093;DHT22;16167;48.768;14.984;2022-10-16T09:13:23;20.50;1.00
29093;DHT22;16167;48.768;14.984;2022-10-16T09:16:00;20.60;1.00
29093;DHT22;16167;48.768;14.984;2022-10-16T09:18:33;20.70;1.00
29093;DHT22;16167;48.768;14.984;2022-10-16T09:21:09;20.70;1.00
29093;DHT22;16167;48.768;14.984;2022-10-16T09:23:40;20.70;1.00
29093;DHT22;16167;48.768;14.984;2022-10-16T09:26:11;20.80;1.00
29093;DHT22;16167;48.768;14.984;2022-10-16T09:28:40;20.90;1.00
29093;DHT22;16167;48.768;14.984;2022-10-16T09:31:15;21.10;1.00
29093;DHT22;16167;48.768;14.984;2022-10-16T09:33:47;21.20;1.00
29093;DHT22;16167;48.768;14.984;2022-10-16T09:36:17;21.40;1.00
29093;DHT22;16167;48.768;14.984;2022-10-16T09:38:46;21.70;1.00
29093;DHT22;16167;48.768;14.984;2022-10-16T09:41:18;21.80;1.00
29093;DHT22;16167;48.768;14.984;2022-10-16T09:43:49;21.80;1.00
29093;DHT22;16167;48.768;14.984;2022-10-16T09:46:28;21.80;1.00
29093;DHT22;16167;48.768;14.984;2022-10-16T09:48:58;21.80;1.00
29093;DHT22;16167;48.768;14.984;2022-10-16T09:51:29;21.80;1.00
29093;DHT22;16167;48.768;14.984;2022-10-16T09:54:01;21.70;1.00
29093;DHT22;16167;48.768;14.984;2022-10-16T09:56:31;21.70;1.00
29093;DHT22;16167;48.768;14.984;2022-10-16T09:59:02;21.80;1.00
29093;DHT22;16167;48.768;14.984;2022-10-16T10:01:38;21.70;1.00
29093;DHT22;16167;48.768;14.984;2022-10-16T10:04:07;21.80;1.00
29093;DHT22;16167;48.768;14.984;2022-10-16T10:06:37;22.20;1.00
29093;DHT22;16167;48.768;14.984;2022-10-16T10:09:17;22.70;1.00
29093;DHT22;16167;48.768;14.984;2022-10-16T10:11:50;23.10;1.00
29093;DHT22;16167;48.768;14.984;2022-10-16T10:14:24;23.50;1.00
29093;DHT22;16167;48.768;14.984;2022-10-16T10:17:07;23.80;1.00
29093;DHT22;16167;48.768;14.984;2022-10-16T10:19:38;24.20;1.00
29093;DHT22;16167;48.768;14.984;2022-10-16T10:22:17;24.50;1.00
29093;DHT22;16167;48.768;14.984;2022-10-16T10:24:56;24.80;1.00
29093;DHT22;16167;48.768;14.984;2022-10-16T10:27:32;25.10;1.00
29093;DHT22;16167;48.768;14.984;2022-10-16T10:30:08;25.30;1.00
29093;DHT22;16167;48.768;14.984;2022-10-16T10:32:43;25.50;1.00
29093;DHT22;16167;48.768;14.984;2022-10-16T10:35:22;25.10;1.00
29093;DHT22;16167;48.768;14.984;2022-10-16T10:38:05;24.60;1.00
29093;DHT22;16167;48.768;14.984;2022-10-16T10:40:50;24.20;1.00
29093;DHT22;16167;48.768;14.984;2022-10-16T10:43:32;23.90;1.00
29093;DHT22;16167;48.768;14.984;2022-10-16T10:46:12;23.80;1.00
29093;DHT22;16167;48.768;14.984;2022-10-16T10:48:54;23.80;1.00
29093;DHT22;16167;48.768;14.984;2022-10-16T10:51:31;23.90;1.00
29093;DHT22;16167;48.768;14.984;2022-10-16T10:54:13;24.00;1.00
29093;DHT22;16167;48.768;14.984;2022-10-16T10:56:48;23.90;1.00
29093;DHT22;16167;48.768;14.984;2022-10-16T11:02:24;24.50;1.00
29093;DHT22;16167;48.768;14.984;2022-10-16T11:07:48;25.70;1.00
29093;DHT22;16167;48.768;14.984;2022-10-16T11:10:20;26.30;1.00
29093;DHT22;16167;48.768;14.984;2022-10-16T11:12:54;26.60;1.00
29093;DHT22;16167;48.768;14.984;2022-10-16T11:15:27;26.60;1.00
29093;DHT22;16167;48.768;14.984;2022-10-16T11:18:03;26.60;1.00
29093;DHT22;16167;48.768;14.984;2022-10-16T11:20:36;26.80;1.00
29093;DHT22;16167;48.768;14.984;2022-10-16T11:23:11;26.90;1.00
29093;DHT22;16167;48.768;14.984;2022-10-16T11:25:42;27.30;1.00
29093;DHT22;16167;48.768;14.984;2022-10-16T11:28:15;27.60;1.00
29093;DHT22;16167;48.768;14.984;2022-10-16T11:30:47;28.00;1.00
29093;DHT22;16167;48.768;14.984;2022-10-16T11:33:27;28.00;1.00
29093;DHT22;16167;48.768;14.984;2022-10-16T11:36:03;28.30;1.00
29093;DHT22;16167;48.768;14.984;2022-10-16T11:38:37;28.80;1.00
29093;DHT22;16167;48.768;14.984;2022-10-16T11:41:15;29.10;1.00
29093;DHT22;16167;48.768;14.984;2022-10-16T11:43:52;29.60;1.00
29093;DHT22;16167;48.768;14.984;2022-10-16T11:46:26;29.80;1.00
29093;DHT22;16167;48.768;14.984;2022-10-16T11:49:00;30.10;1.00
29093;DHT22;16167;48.768;14.984;2022-10-16T11:51:35;30.40;1.00
29093;DHT22;16167;48.768;14.984;2022-10-16T11:54:10;30.50;1.00
29093;DHT22;16167;48.768;14.984;2022-10-16T11:56:43;30.80;1.00
29093;DHT22;16167;48.768;14.984;2022-10-16T11:59:22;31.30;1.00
29093;DHT22;16167;48.768;14.984;2022-10-16T12:01:57;31.70;1.00
29093;DHT22;16167;48.768;14.984;2022-10-16T12:04:33;31.90;1.00
29093;DHT22;16167;48.768;14.984;2022-10-16T12:07:05;31.80;1.00
29093;DHT22;16167;48.768;14.984;2022-10-16T12:09:37;32.20;1.00
29093;DHT22;16167;48.768;14.984;2022-10-16T12:12:24;32.00;1.00
29093;DHT22;16167;48.768;14.984;2022-10-16T12:15:03;31.60;1.00
29093;DHT22;16167;48.768;14.984;2022-10-16T12:18:01;31.40;1.00
29093;DHT22;16167;48.768;14.984;2022-10-16T12:20:30;31.10;1.00
29093;DHT22;16167;48.768;14.984;2022-10-16T12:23:00;31.00;1.00
29093;DHT22;16167;48.768;14.984;2022-10-16T12:25:31;31.30;1.00
29093;DHT22;16167;48.768;14.984;2022-10-16T12:28:04;31.60;1.00
29093;DHT22;16167;48.768;14.984;2022-10-16T12:30:35;31.60;1.00
29093;DHT22;16167;48.768;14.984;2022-10-16T12:33:06;32.40;1.00
29093;DHT22;16167;48.768;14.984;2022-10-16T12:35:44;32.40;1.00
29093;DHT22;16167;48.768;14.984;2022-10-16T12:38:17;32.20;1.00
29093;DHT22;16167;48.768;14.984;2022-10-16T12:40:53;32.50;1.00
29093;DHT22;16167;48.768;14.984;2022-10-16T12:43:34;31.40;1.00
29093;DHT22;16167;48.768;14.984;2022-10-16T12:46:20;30.20;1.00
29093;DHT22;16167;48.768;14.984;2022-10-16T12:48:49;29.90;1.00
29093;DHT22;16167;48.768;14.984;2022-10-16T12:51:36;30.80;1.00
29093;DHT22;16167;48.768;14.984;2022-10-16T12:54:12;31.50;1.00
29093;DHT22;16167;48.768;14.984;2022-10-16T12:56:49;32.10;1.00
29093;DHT22;16167;48.768;14.984;2022-10-16T12:59:21;32.80;1.00
29093;DHT22;16167;48.768;14.984;2022-10-16T13:02:08;33.10;1.00
29093;DHT22;16167;48.768;14.984;2022-10-16T13:04:58;33.40;1.00
29093;DHT22;16167;48.768;14.984;2022-10-16T13:07:48;33.60;1.00
29093;DHT22;16167;48.768;14.984;2022-10-16T13:10:24;33.80;1.00
29093;DHT22;16167;48.768;14.984;2022-10-16T13:13:10;33.90;1.00
29093;DHT22;16167;48.768;14.984;2022-10-16T13:16:02;33.90;1.00
29093;DHT22;16167;48.768;14.984;2022-10-16T13:18:42;34.10;1.00
29093;DHT22;16167;48.768;14.984;2022-10-16T13:21:24;34.20;1.00
29093;DHT22;16167;48.768;14.984;2022-10-16T13:23:59;34.40;1.00
29093;DHT22;16167;48.768;14.984;2022-10-16T13:26:37;34.50;1.00
29093;DHT22;16167;48.768;14.984;2022-10-16T13:29:09;34.30;1.00
29093;DHT22;16167;48.768;14.984;2022-10-16T13:31:38;34.40;1.00
29093;DHT22;16167;48.768;14.984;2022-10-16T13:34:13;34.60;1.00
29093;DHT22;16167;48.768;14.984;2022-10-16T13:36:44;34.60;1.00
29093;DHT22;16167;48.768;14.984;2022-10-16T13:39:15;34.80;1.00
29093;DHT22;16167;48.768;14.984;2022-10-16T13:41:45;34.80;1.00
29093;DHT22;16167;48.768;14.984;2022-10-16T13:44:15;34.80;1.00
29093;DHT22;16167;48.768;14.984;2022-10-16T13:46:43;34.80;1.00
29093;DHT22;16167;48.768;14.984;2022-10-16T13:49:15;34.60;1.00
29093;DHT22;16167;48.768;14.984;2022-10-16T13:51:54;34.10;1.00
29093;DHT22;16167;48.768;14.984;2022-10-16T13:54:23;33.40;1.00
29093;DHT22;16167;48.768;14.984;2022-10-16T13:56:51;32.40;1.00
29093;DHT22;16167;48.768;14.984;2022-10-16T13:59:36;31.20;1.00
29093;DHT22;16167;48.768;14.984;2022-10-16T14:02:15;29.90;1.00
29093;DHT22;16167;48.768;14.984;2022-10-16T14:04:47;28.80;1.00
29093;DHT22;16167;48.768;14.984;2022-10-16T14:07:21;27.80;1.00
29093;DHT22;16167;48.768;14.984;2022-10-16T14:09:52;27.10;1.00
29093;DHT22;16167;48.768;14.984;2022-10-16T14:12:21;26.50;1.00
29093;DHT22;16167;48.768;14.984;2022-10-16T14:14:55;26.10;1.00
29093;DHT22;16167;48.768;14.984;2022-10-16T14:17:26;25.60;1.00
29093;DHT22;16167;48.768;14.984;2022-10-16T14:19:58;25.20;1.00
29093;DHT22;16167;48.768;14.984;2022-10-16T14:22:34;24.90;1.00
29093;DHT22;16167;48.768;14.984;2022-10-16T14:25:20;24.50;1.00
29093;DHT22;16167;48.768;14.984;2022-10-16T14:27:57;24.20;1.00
29093;DHT22;16167;48.768;14.984;2022-10-16T14:30:26;24.10;1.00
29093;DHT22;16167;48.768;14.984;2022-10-16T14:32:56;23.80;1.00
29093;DHT22;16167;48.768;14.984;2022-10-16T14:35:29;23.70;1.00
29093;DHT22;16167;48.768;14.984;2022-10-16T14:38:00;23.50;1.00
29093;DHT22;16167;48.768;14.984;2022-10-16T14:40:30;23.30;1.00
29093;DHT22;16167;48.768;14.984;2022-10-16T14:42:59;23.10;1.00
29093;DHT22;16167;48.768;14.984;2022-10-16T14:45:30;23.00;1.00
29093;DHT22;16167;48.768;14.984;2022-10-16T14:48:02;22.90;1.00
29093;DHT22;16167;48.768;14.984;2022-10-16T14:50:34;23.00;1.00
29093;DHT22;16167;48.768;14.984;2022-10-16T14:53:08;23.30;1.00
29093;DHT22;16167;48.768;14.984;2022-10-16T14:55:39;23.70;1.00
29093;DHT22;16167;48.768;14.984;2022-10-16T14:58:13;23.80;1.00
29093;DHT22;16167;48.768;14.984;2022-10-16T15:00:42;23.60;1.00
29093;DHT22;16167;48.768;14.984;2022-10-16T15:03:10;23.20;1.00
29093;DHT22;16167;48.768;14.984;2022-10-16T15:05:40;22.90;1.00
29093;DHT22;16167;48.768;14.984;2022-10-16T15:08:08;22.50;1.00
29093;DHT22;16167;48.768;14.984;2022-10-16T15:10:39;22.20;1.00
29093;DHT22;16167;48.768;14.984;2022-10-16T15:13:11;21.90;1.00
29093;DHT22;16167;48.768;14.984;2022-10-16T15:15:42;21.70;1.00
29093;DHT22;16167;48.768;14.984;2022-10-16T15:18:10;21.50;1.00
29093;DHT22;16167;48.768;14.984;2022-10-16T15:20:42;21.30;1.00
29093;DHT22;16167;48.768;14.984;2022-10-16T15:23:14;21.10;1.00
29093;DHT22;16167;48.768;14.984;2022-10-16T15:25:44;20.90;1.00
29093;DHT22;16167;48.768;14.984;2022-10-16T15:28:13;20.80;1.00
29093;DHT22;16167;48.768;14.984;2022-10-16T15:30:42;20.60;1.00
29093;DHT22;16167;48.768;14.984;2022-10-16T15:33:13;20.40;1.00
29093;DHT22;16167;48.768;14.984;2022-10-16T15:35:45;20.20;1.00
29093;DHT22;16167;48.768;14.984;2022-10-16T15:38:15;20.00;1.00
29093;DHT22;16167;48.768;14.984;2022-10-16T15:40:43;19.80;1.00
29093;DHT22;16167;48.768;14.984;2022-10-16T15:43:11;19.70;1.00
29093;DHT22;16167;48.768;14.984;2022-10-16T15:45:40;19.60;1.00
29093;DHT22;16167;48.768;14.984;2022-10-16T15:48:10;19.50;1.00
29093;DHT22;16167;48.768;14.984;2022-10-16T15:50:39;19.40;1.00
29093;DHT22;16167;48.768;14.984;2022-10-16T15:53:11;19.20;1.00
29093;DHT22;16167;48.768;14.984;2022-10-16T15:55:39;19.10;1.00
29093;DHT22;16167;48.768;14.984;2022-10-16T15:58:07;19.00;1.00
29093;DHT22;16167;48.768;14.984;2022-10-16T16:00:35;18.80;1.00